sensor_id;sensor_type;location;lat;lon;timestamp;pressure;altitude;pressure_sealevel;temperature;humidity
45285;BME280;31026;43.780;25.948;2023-02-26T00:00:48;99628.06;;;15.16;67.46
45285;BME280;31026;43.780;25.948;2023-02-26T00:03:16;99636.88;;;15.17;67.37
45285;BME280;31026;43.780;25.948;2023-02-26T00:05:44;99627.78;;;15.19;67.41
45285;BME280;31026;43.780;25.948;2023-02-26T00:08:12;99623.28;;;15.20;67.25
45285;BME280;31026;43.780;25.948;2023-02-26T00:10:41;99609.00;;;15.21;67.20
45285;BME280;31026;43.780;25.948;2023-02-26T00:13:09;99610.66;;;15.22;67.41
45285;BME280;31026;43.780;25.948;2023-02-26T00:15:40;99603.94;;;15.18;67.47
45285;BME280;31026;43.780;25.948;2023-02-26T00:18:11;99609.44;;;15.16;67.35
45285;BME280;31026;43.780;25.948;2023-02-26T00:20:40;99622.56;;;15.18;67.55
45285;BME280;31026;43.780;25.948;2023-02-26T00:23:10;99611.38;;;15.14;67.40
45285;BME280;31026;43.780;25.948;2023-02-26T00:25:38;99596.13;;;15.16;67.53
45285;BME280;31026;43.780;25.948;2023-02-26T00:28:07;99612.09;;;15.16;67.17
45285;BME280;31026;43.780;25.948;2023-02-26T00:30:36;99608.72;;;15.14;67.16
45285;BME280;31026;43.780;25.948;2023-02-26T00:33:08;99608.84;;;15.13;67.44
45285;BME280;31026;43.780;25.948;2023-02-26T00:35:36;99616.72;;;15.14;67.42
45285;BME280;31026;43.780;25.948;2023-02-26T00:38:05;99591.19;;;15.11;67.39
45285;BME280;31026;43.780;25.948;2023-02-26T00:40:34;99607.31;;;15.10;67.16
45285;BME280;31026;43.780;25.948;2023-02-26T00:43:04;99590.47;;;15.09;67.16
45285;BME280;31026;43.780;25.948;2023-02-26T00:45:33;99585.16;;;15.09;67.68
45285;BME280;31026;43.780;25.948;2023-02-26T00:50:58;99601.13;;;15.09;67.39
45285;BME280;31026;43.780;25.948;2023-02-26T00:53:28;99586.84;;;15.10;67.54
45285;BME280;31026;43.780;25.948;2023-02-26T00:55:58;99591.47;;;15.08;67.40
45285;BME280;31026;43.780;25.948;2023-02-26T00:58:26;99595.41;;;15.14;67.54
45285;BME280;31026;43.780;25.948;2023-02-26T01:00:54;99605.63;;;15.09;67.40
45285;BME280;31026;43.780;25.948;2023-02-26T01:03:23;99603.09;;;15.07;67.26
45285;BME280;31026;43.780;25.948;2023-02-26T01:05:51;99601.13;;;15.09;67.17
45285;BME280;31026;43.780;25.948;2023-02-26T01:08:23;99606.44;;;15.09;67.31
45285;BME280;31026;43.780;25.948;2023-02-26T01:10:55;99595.81;;;15.09;67.13
45285;BME280;31026;43.780;25.948;2023-02-26T01:13:24;99591.88;;;15.14;67.28
45285;BME280;31026;43.780;25.948;2023-02-26T01:15:53;99581.66;;;15.09;67.24
45285;BME280;31026;43.780;25.948;2023-02-26T01:18:23;99590.47;;;15.09;67.20
45285;BME280;31026;43.780;25.948;2023-02-26T01:20:55;99611.78;;;15.09;67.28
45285;BME280;31026;43.780;25.948;2023-02-26T01:23:26;99583.50;;;15.08;67.54
45285;BME280;31026;43.780;25.948;2023-02-26T01:25:59;99586.16;;;15.08;67.27
45285;BME280;31026;43.780;25.948;2023-02-26T01:28:29;99600.28;;;15.09;67.30
45285;BME280;31026;43.780;25.948;2023-02-26T01:30:58;99587.81;;;15.09;67.15
45285;BME280;31026;43.780;25.948;2023-02-26T01:33:30;99591.06;;;15.13;67.50
45285;BME280;31026;43.780;25.948;2023-02-26T01:36:02;99586.97;;;15.09;67.11
45285;BME280;31026;43.780;25.948;2023-02-26T01:38:38;99595.94;;;15.08;67.36
45285;BME280;31026;43.780;25.948;2023-02-26T01:41:15;99602.00;;;15.10;67.51
45285;BME280;31026;43.780;25.948;2023-02-26T01:43:49;99589.66;;;15.09;67.22
45285;BME280;31026;43.780;25.948;2023-02-26T01:46:21;99587.94;;;15.08;67.29
45285;BME280;31026;43.780;25.948;2023-02-26T01:48:50;99594.41;;;15.05;67.31
45285;BME280;31026;43.780;25.948;2023-02-26T01:54:05;99585.28;;;15.08;67.13
45285;BME280;31026;43.780;25.948;2023-02-26T01:56:33;99602.38;;;15.05;67.12
45285;BME280;31026;43.780;25.948;2023-02-26T01:59:01;99589.91;;;15.06;67.49
45285;BME280;31026;43.780;25.948;2023-02-26T02:01:30;99591.59;;;15.07;67.13
45285;BME280;31026;43.780;25.948;2023-02-26T02:03:59;99591.47;;;15.08;67.32
45285;BME280;31026;43.780;25.948;2023-02-26T02:06:27;99575.06;;;15.03;67.19
45285;BME280;31026;43.780;25.948;2023-02-26T02:08:56;99568.59;;;15.06;67.49
45285;BME280;31026;43.780;25.948;2023-02-26T02:11:27;99569.59;;;15.05;67.54
45285;BME280;31026;43.780;25.948;2023-02-26T02:13:59;99571.84;;;15.09;67.12
45285;BME280;31026;43.780;25.948;2023-02-26T02:16:33;99573.94;;;15.06;67.28
45285;BME280;31026;43.780;25.948;2023-02-26T02:19:07;99572.13;;;15.06;67.48
45285;BME280;31026;43.780;25.948;2023-02-26T02:21:51;99566.09;;;15.04;67.36
45285;BME280;31026;43.780;25.948;2023-02-26T02:24:24;99558.53;;;15.09;67.29
45285;BME280;31026;43.780;25.948;2023-02-26T02:27:09;99551.81;;;15.05;67.51
45285;BME280;31026;43.780;25.948;2023-02-26T02:29:53;99573.94;;;15.06;67.34
45285;BME280;31026;43.780;25.948;2023-02-26T02:32:33;99565.41;;;15.02;67.44
45285;BME280;31026;43.780;25.948;2023-02-26T02:35:06;99563.44;;;15.04;67.36
45285;BME280;31026;43.780;25.948;2023-02-26T02:37:36;99577.59;;;15.05;67.33
45285;BME280;31026;43.780;25.948;2023-02-26T02:40:08;99554.75;;;15.02;67.38
45285;BME280;31026;43.780;25.948;2023-02-26T02:42:38;99561.06;;;15.01;67.25
45285;BME280;31026;43.780;25.948;2023-02-26T02:45:10;99540.75;;;15.00;67.31
45285;BME280;31026;43.780;25.948;2023-02-26T02:47:45;99547.59;;;15.03;67.54
45285;BME280;31026;43.780;25.948;2023-02-26T02:50:17;99557.97;;;15.06;67.32
45285;BME280;31026;43.780;25.948;2023-02-26T02:52:48;99550.13;;;15.04;67.22
45285;BME280;31026;43.780;25.948;2023-02-26T02:55:19;99563.56;;;15.03;67.23
45285;BME280;31026;43.780;25.948;2023-02-26T02:57:48;99560.91;;;15.03;67.06
45285;BME280;31026;43.780;25.948;2023-02-26T03:00:18;99554.75;;;15.02;67.33
45285;BME280;31026;43.780;25.948;2023-02-26T03:02:51;99548.19;;;15.06;66.90
45285;BME280;31026;43.780;25.948;2023-02-26T03:05:22;99554.75;;;15.02;67.22
45285;BME280;31026;43.780;25.948;2023-02-26T03:07:51;99555.47;;;15.04;67.18
45285;BME280;31026;43.780;25.948;2023-02-26T03:10:20;99555.72;;;15.01;67.07
45285;BME280;31026;43.780;25.948;2023-02-26T03:12:48;99550.41;;;15.01;66.94
45285;BME280;31026;43.780;25.948;2023-02-26T03:15:17;99564.53;;;15.02;67.22
45285;BME280;31026;43.780;25.948;2023-02-26T03:17:53;99553.19;;;15.00;66.86
45285;BME280;31026;43.780;25.948;2023-02-26T03:20:24;99554.75;;;15.02;66.72
45285;BME280;31026;43.780;25.948;2023-02-26T03:22:57;99553.91;;;15.02;66.53
45285;BME280;31026;43.780;25.948;2023-02-26T03:25:29;99549.44;;;15.02;66.95
45285;BME280;31026;43.780;25.948;2023-02-26T03:28:00;99551.22;;;15.02;66.84
45285;BME280;31026;43.780;25.948;2023-02-26T03:30:34;99546.78;;;15.02;66.99
45285;BME280;31026;43.780;25.948;2023-02-26T03:33:08;99570.56;;;15.04;66.82
45285;BME280;31026;43.780;25.948;2023-02-26T03:35:41;99549.28;;;15.04;66.43
45285;BME280;31026;43.780;25.948;2023-02-26T03:38:12;99556.72;;;15.00;66.79
45285;BME280;31026;43.780;25.948;2023-02-26T03:40:43;99549.69;;;14.99;66.64
45285;BME280;31026;43.780;25.948;2023-02-26T03:43:14;99576.06;;;15.02;66.66
45285;BME280;31026;43.780;25.948;2023-02-26T03:45:46;99554.88;;;15.01;66.40
45285;BME280;31026;43.780;25.948;2023-02-26T03:48:19;99578.03;;;15.00;66.85
45285;BME280;31026;43.780;25.948;2023-02-26T03:50:50;99574.50;;;15.00;66.83
45285;BME280;31026;43.780;25.948;2023-02-26T03:53:20;99553.34;;;14.98;66.66
45285;BME280;31026;43.780;25.948;2023-02-26T03:55:51;99582.34;;;15.01;66.44
45285;BME280;31026;43.780;25.948;2023-02-26T03:58:22;99569.03;;;15.01;66.49
45285;BME280;31026;43.780;25.948;2023-02-26T04:00:51;99585.13;;;15.00;66.40
45285;BME280;31026;43.780;25.948;2023-02-26T04:03:26;99571.69;;;15.01;66.35
45285;BME280;31026;43.780;25.948;2023-02-26T04:05:55;99571.69;;;15.01;66.34
45285;BME280;31026;43.780;25.948;2023-02-26T04:08:24;99578.72;;;15.02;66.54
45285;BME280;31026;43.780;25.948;2023-02-26T04:10:53;99568.19;;;15.01;66.26
45285;BME280;31026;43.780;25.948;2023-02-26T04:13:22;99587.97;;;14.98;66.44
45285;BME280;31026;43.780;25.948;2023-02-26T04:15:52;99604.47;;;15.02;66.39
45285;BME280;31026;43.780;25.948;2023-02-26T04:18:20;99587.97;;;14.98;66.03
45285;BME280;31026;43.780;25.948;2023-02-26T04:20:51;99586.28;;;14.97;66.33
45285;BME280;31026;43.780;25.948;2023-02-26T04:23:19;99597.34;;;15.02;66.31
45285;BME280;31026;43.780;25.948;2023-02-26T04:25:48;99587.66;;;15.01;66.52
45285;BME280;31026;43.780;25.948;2023-02-26T04:28:16;99604.91;;;15.07;66.03
45285;BME280;31026;43.780;25.948;2023-02-26T04:30:44;99598.75;;;15.06;66.22
45285;BME280;31026;43.780;25.948;2023-02-26T04:33:13;99603.09;;;15.07;66.32
45285;BME280;31026;43.780;25.948;2023-02-26T04:35:41;99596.66;;;15.10;66.08
45285;BME280;31026;43.780;25.948;2023-02-26T04:38:12;99605.50;;;15.10;65.86
45285;BME280;31026;43.780;25.948;2023-02-26T04:40:40;99609.13;;;15.09;65.90
45285;BME280;31026;43.780;25.948;2023-02-26T04:43:09;99596.34;;;15.03;65.93
45285;BME280;31026;43.780;25.948;2023-02-26T04:45:37;99607.00;;;15.03;65.99
45285;BME280;31026;43.780;25.948;2023-02-26T04:48:05;99571.69;;;15.01;66.35
45285;BME280;31026;43.780;25.948;2023-02-26T04:50:33;99593.00;;;15.01;65.98
45285;BME280;31026;43.780;25.948;2023-02-26T04:53:02;99595.66;;;15.01;66.29
45285;BME280;31026;43.780;25.948;2023-02-26T04:55:32;99615.41;;;14.99;66.45
45285;BME280;31026;43.780;25.948;2023-02-26T04:58:01;99618.78;;;15.01;65.94
45285;BME280;31026;43.780;25.948;2023-02-26T05:00:29;99595.94;;;14.98;66.29
45285;BME280;31026;43.780;25.948;2023-02-26T05:02:57;99589.63;;;14.99;66.15
45285;BME280;31026;43.780;25.948;2023-02-26T05:05:25;99619.63;;;15.01;66.03
45285;BME280;31026;43.780;25.948;2023-02-26T05:07:54;99586.97;;;14.99;66.39
45285;BME280;31026;43.780;25.948;2023-02-26T05:10:22;99623.28;;;15.00;66.23
45285;BME280;31026;43.780;25.948;2023-02-26T05:12:53;99610.50;;;15.04;66.29
45285;BME280;31026;43.780;25.948;2023-02-26T05:15:21;99598.31;;;15.01;66.24
45285;BME280;31026;43.780;25.948;2023-02-26T05:17:49;99588.81;;;14.99;66.10
45285;BME280;31026;43.780;25.948;2023-02-26T05:20:18;99567.50;;;14.99;66.57
45285;BME280;31026;43.780;25.948;2023-02-26T05:22:46;99595.78;;;15.00;66.18
45285;BME280;31026;43.780;25.948;2023-02-26T05:25:14;99589.63;;;14.99;66.12
45285;BME280;31026;43.780;25.948;2023-02-26T05:27:43;99598.31;;;15.01;66.27
45285;BME280;31026;43.780;25.948;2023-02-26T05:30:14;99613.34;;;15.02;66.01
45285;BME280;31026;43.780;25.948;2023-02-26T05:32:43;99598.19;;;15.03;66.09
45285;BME280;31026;43.780;25.948;2023-02-26T05:35:11;99612.06;;;15.06;66.03
45285;BME280;31026;43.780;25.948;2023-02-26T05:37:40;99598.06;;;15.04;65.77
45285;BME280;31026;43.780;25.948;2023-02-26T05:40:08;99608.00;;;15.02;66.06
45285;BME280;31026;43.780;25.948;2023-02-26T05:42:38;99593.81;;;15.02;65.98
45285;BME280;31026;43.780;25.948;2023-02-26T05:45:07;99593.56;;;15.05;66.02
45285;BME280;31026;43.780;25.948;2023-02-26T05:47:38;99600.72;;;15.04;66.06
45285;BME280;31026;43.780;25.948;2023-02-26T05:50:07;99577.03;;;15.01;65.91
45285;BME280;31026;43.780;25.948;2023-02-26T05:52:35;99591.03;;;15.03;65.97
45285;BME280;31026;43.780;25.948;2023-02-26T05:55:04;99602.09;;;14.99;66.20
45285;BME280;31026;43.780;25.948;2023-02-26T05:57:32;99591.59;;;14.97;66.11
45285;BME280;31026;43.780;25.948;2023-02-26T06:00:01;99579.56;;;15.03;66.00
45285;BME280;31026;43.780;25.948;2023-02-26T06:02:29;99605.19;;;15.04;65.70
45285;BME280;31026;43.780;25.948;2023-02-26T06:05:00;99616.69;;;15.04;65.88
45285;BME280;31026;43.780;25.948;2023-02-26T06:07:28;99622.28;;;15.01;65.77
45285;BME280;31026;43.780;25.948;2023-02-26T06:09:56;99607.00;;;15.03;65.90
45285;BME280;31026;43.780;25.948;2023-02-26T06:12:24;99594.00;;;15.00;65.78
45285;BME280;31026;43.780;25.948;2023-02-26T06:14:53;99614.44;;;15.00;66.04
45285;BME280;31026;43.780;25.948;2023-02-26T06:17:21;99607.72;;;15.05;65.56
45285;BME280;31026;43.780;25.948;2023-02-26T06:19:49;99613.59;;;14.99;65.78
45285;BME280;31026;43.780;25.948;2023-02-26T06:22:20;99606.59;;;14.98;65.84
45285;BME280;31026;43.780;25.948;2023-02-26T06:24:48;99614.59;;;14.98;65.80
45285;BME280;31026;43.780;25.948;2023-02-26T06:27:19;99622.56;;;14.98;65.78
45285;BME280;31026;43.780;25.948;2023-02-26T06:29:47;99627.75;;;15.00;65.66
45285;BME280;31026;43.780;25.948;2023-02-26T06:32:15;99614.16;;;15.03;65.82
45285;BME280;31026;43.780;25.948;2023-02-26T06:34:43;99638.00;;;15.04;65.59
45285;BME280;31026;43.780;25.948;2023-02-26T06:37:12;99628.03;;;15.06;65.86
45285;BME280;31026;43.780;25.948;2023-02-26T06:39:43;99628.03;;;15.06;65.56
45285;BME280;31026;43.780;25.948;2023-02-26T06:42:11;99635.03;;;15.07;65.53
45285;BME280;31026;43.780;25.948;2023-02-26T06:44:39;99628.75;;;15.08;65.68
45285;BME280;31026;43.780;25.948;2023-02-26T06:47:07;99634.91;;;15.09;65.33
45285;BME280;31026;43.780;25.948;2023-02-26T06:49:36;99632.81;;;15.13;65.73
45285;BME280;31026;43.780;25.948;2023-02-26T06:52:04;99633.94;;;15.10;65.22
45285;BME280;31026;43.780;25.948;2023-02-26T06:54:32;99651.00;;;15.07;65.38
45285;BME280;31026;43.780;25.948;2023-02-26T06:57:03;99638.69;;;15.06;65.42
45285;BME280;31026;43.780;25.948;2023-02-26T06:59:31;99641.19;;;15.08;65.67
45285;BME280;31026;43.780;25.948;2023-02-26T07:01:59;99634.06;;;15.08;65.43
45285;BME280;31026;43.780;25.948;2023-02-26T07:04:28;99644.84;;;15.07;65.64
45285;BME280;31026;43.780;25.948;2023-02-26T07:06:56;99629.31;;;15.02;65.30
45285;BME280;31026;43.780;25.948;2023-02-26T07:09:24;99630.84;;;15.05;65.77
45285;BME280;31026;43.780;25.948;2023-02-26T07:11:53;99621.84;;;15.06;65.66
45285;BME280;31026;43.780;25.948;2023-02-26T07:14:24;99625.22;;;15.08;65.35
45285;BME280;31026;43.780;25.948;2023-02-26T07:16:52;99620.19;;;15.05;65.38
45285;BME280;31026;43.780;25.948;2023-02-26T07:19:20;99625.97;;;15.10;65.12
45285;BME280;31026;43.780;25.948;2023-02-26T07:21:49;99607.31;;;15.10;65.44
45285;BME280;31026;43.780;25.948;2023-02-26T07:24:19;99638.53;;;15.08;65.34
45285;BME280;31026;43.780;25.948;2023-02-26T07:26:47;99612.06;;;15.06;65.55
45285;BME280;31026;43.780;25.948;2023-02-26T07:29:15;99606.44;;;15.09;65.22
45285;BME280;31026;43.780;25.948;2023-02-26T07:31:46;99623.00;;;15.13;65.22
45285;BME280;31026;43.780;25.948;2023-02-26T07:34:14;99620.78;;;15.18;65.00
45285;BME280;31026;43.780;25.948;2023-02-26T07:36:42;99627.63;;;15.21;64.65
45285;BME280;31026;43.780;25.948;2023-02-26T07:39:11;99615.59;;;15.26;64.71
45285;BME280;31026;43.780;25.948;2023-02-26T07:41:39;99633.25;;;15.27;64.62
45285;BME280;31026;43.780;25.948;2023-02-26T07:44:07;99621.50;;;15.30;64.57
45285;BME280;31026;43.780;25.948;2023-02-26T07:46:36;99640.53;;;15.25;64.67
45285;BME280;31026;43.780;25.948;2023-02-26T07:49:06;99634.25;;;15.26;64.78
45285;BME280;31026;43.780;25.948;2023-02-26T07:51:35;99627.22;;;15.25;64.40
45285;BME280;31026;43.780;25.948;2023-02-26T07:54:05;99638.88;;;15.24;64.59
45285;BME280;31026;43.780;25.948;2023-02-26T07:56:33;99627.22;;;15.25;64.54
45285;BME280;31026;43.780;25.948;2023-02-26T07:59:02;99635.06;;;15.27;64.52
45285;BME280;31026;43.780;25.948;2023-02-26T08:01:31;99637.03;;;15.25;64.58
45285;BME280;31026;43.780;25.948;2023-02-26T08:03:59;99618.13;;;15.28;64.27
45285;BME280;31026;43.780;25.948;2023-02-26T08:06:30;99631.97;;;15.22;64.61
45285;BME280;31026;43.780;25.948;2023-02-26T08:08:59;99637.72;;;15.27;64.28
45285;BME280;31026;43.780;25.948;2023-02-26T08:11:27;99647.97;;;15.31;64.75
45285;BME280;31026;43.780;25.948;2023-02-26T08:13:57;99644.19;;;15.24;64.64
45285;BME280;31026;43.780;25.948;2023-02-26T08:16:25;99640.66;;;15.24;64.43
45285;BME280;31026;43.780;25.948;2023-02-26T08:18:53;99646.84;;;15.24;64.46
45285;BME280;31026;43.780;25.948;2023-02-26T08:21:22;99651.06;;;15.27;64.28
45285;BME280;31026;43.780;25.948;2023-02-26T08:23:53;99648.38;;;15.27;64.45
45285;BME280;31026;43.780;25.948;2023-02-26T08:26:21;99643.19;;;15.25;64.47
45285;BME280;31026;43.780;25.948;2023-02-26T08:28:49;99643.63;;;15.30;64.57
45285;BME280;31026;43.780;25.948;2023-02-26T08:31:17;99654.84;;;15.34;64.55
45285;BME280;31026;43.780;25.948;2023-02-26T08:33:45;99642.38;;;15.35;64.25
45285;BME280;31026;43.780;25.948;2023-02-26T08:36:14;99663.25;;;15.39;63.97
45285;BME280;31026;43.780;25.948;2023-02-26T08:38:42;99653.03;;;15.35;64.41
45285;BME280;31026;43.780;25.948;2023-02-26T08:41:13;99653.88;;;15.35;64.00
45285;BME280;31026;43.780;25.948;2023-02-26T08:43:41;99651.50;;;15.32;64.51
45285;BME280;31026;43.780;25.948;2023-02-26T08:46:10;99636.63;;;15.39;63.90
45285;BME280;31026;43.780;25.948;2023-02-26T08:48:38;99639.41;;;15.47;63.93
45285;BME280;31026;43.780;25.948;2023-02-26T08:51:06;99639.59;;;15.46;63.92
45285;BME280;31026;43.780;25.948;2023-02-26T08:53:35;99651.66;;;15.50;63.92
45285;BME280;31026;43.780;25.948;2023-02-26T08:56:04;99644.06;;;15.45;63.99
45285;BME280;31026;43.780;25.948;2023-02-26T08:58:35;99653.31;;;15.51;63.91
45285;BME280;31026;43.780;25.948;2023-02-26T09:01:03;99643.78;;;15.48;64.01
45285;BME280;31026;43.780;25.948;2023-02-26T09:03:32;99638.47;;;15.48;64.23
45285;BME280;31026;43.780;25.948;2023-02-26T09:06:00;99649.38;;;15.45;64.12
45285;BME280;31026;43.780;25.948;2023-02-26T09:08:28;99644.91;;;15.46;63.84
45285;BME280;31026;43.780;25.948;2023-02-26T09:10:58;99660.03;;;15.45;64.12
45285;BME280;31026;43.780;25.948;2023-02-26T09:13:27;99639.28;;;15.39;63.96
45285;BME280;31026;43.780;25.948;2023-02-26T09:15:57;99638.59;;;15.37;64.21
45285;BME280;31026;43.780;25.948;2023-02-26T09:18:26;99644.03;;;15.36;64.06
45285;BME280;31026;43.780;25.948;2023-02-26T09:20:54;99656.25;;;15.38;64.08
45285;BME280;31026;43.780;25.948;2023-02-26T09:23:22;99644.91;;;15.36;64.11
45285;BME280;31026;43.780;25.948;2023-02-26T09:25:51;99644.91;;;15.36;64.44
45285;BME280;31026;43.780;25.948;2023-02-26T09:28:20;99644.91;;;15.36;64.51
45285;BME280;31026;43.780;25.948;2023-02-26T09:30:49;99647.69;;;15.35;64.10
45285;BME280;31026;43.780;25.948;2023-02-26T09:33:20;99645.03;;;15.35;64.01
45285;BME280;31026;43.780;25.948;2023-02-26T09:35:49;99625.25;;;15.37;64.36
45285;BME280;31026;43.780;25.948;2023-02-26T09:38:18;99659.91;;;15.37;64.22
45285;BME280;31026;43.780;25.948;2023-02-26T09:40:47;99653.59;;;15.38;64.46
45285;BME280;31026;43.780;25.948;2023-02-26T09:43:23;99654.84;;;15.34;64.03
45285;BME280;31026;43.780;25.948;2023-02-26T09:45:53;99650.94;;;15.38;64.22
45285;BME280;31026;43.780;25.948;2023-02-26T09:48:26;99645.75;;;15.37;64.08
45285;BME280;31026;43.780;25.948;2023-02-26T09:50:58;99657.22;;;15.37;64.39
45285;BME280;31026;43.780;25.948;2023-02-26T09:53:27;99657.78;;;15.41;64.26
45285;BME280;31026;43.780;25.948;2023-02-26T09:55:57;99663.97;;;15.41;64.25
45285;BME280;31026;43.780;25.948;2023-02-26T09:58:28;99670.69;;;15.45;64.14
45285;BME280;31026;43.780;25.948;2023-02-26T10:01:00;99658.63;;;15.41;64.37
45285;BME280;31026;43.780;25.948;2023-02-26T10:03:35;99675.31;;;15.43;64.08
45285;BME280;31026;43.780;25.948;2023-02-26T10:06:09;99670.13;;;15.42;64.23
45285;BME280;31026;43.780;25.948;2023-02-26T10:08:42;99663.69;;;15.44;64.07
45285;BME280;31026;43.780;25.948;2023-02-26T10:11:22;99665.38;;;15.45;63.82
45285;BME280;31026;43.780;25.948;2023-02-26T10:13:54;99669.28;;;15.41;64.30
45285;BME280;31026;43.780;25.948;2023-02-26T10:16:25;99664.78;;;15.42;63.85
45285;BME280;31026;43.780;25.948;2023-02-26T10:18:57;99672.66;;;15.43;64.20
45285;BME280;31026;43.780;25.948;2023-02-26T10:21:28;99667.63;;;15.40;64.48
45285;BME280;31026;43.780;25.948;2023-02-26T10:23:57;99662.44;;;15.39;64.43
45285;BME280;31026;43.780;25.948;2023-02-26T10:26:29;99669.41;;;15.40;64.38
45285;BME280;31026;43.780;25.948;2023-02-26T10:29:01;99668.44;;;15.41;64.10
45285;BME280;31026;43.780;25.948;2023-02-26T10:31:32;99663.00;;;15.42;64.34
45285;BME280;31026;43.780;25.948;2023-02-26T10:34:12;99662.00;;;15.43;64.24
45285;BME280;31026;43.780;25.948;2023-02-26T10:36:46;99655.41;;;15.47;64.24
45285;BME280;31026;43.780;25.948;2023-02-26T10:39:23;99652.91;;;15.46;63.77
45285;BME280;31026;43.780;25.948;2023-02-26T10:41:55;99636.75;;;15.47;63.95
45285;BME280;31026;43.780;25.948;2023-02-26T10:44:27;99634.38;;;15.44;64.21
45285;BME280;31026;43.780;25.948;2023-02-26T10:47:00;99636.06;;;15.45;63.76
45285;BME280;31026;43.780;25.948;2023-02-26T10:49:41;99641.00;;;15.50;64.02
45285;BME280;31026;43.780;25.948;2023-02-26T10:52:14;99629.06;;;15.44;63.66
45285;BME280;31026;43.780;25.948;2023-02-26T10:54:45;99639.72;;;15.44;63.90
45285;BME280;31026;43.780;25.948;2023-02-26T10:57:16;99638.72;;;15.45;64.10
45285;BME280;31026;43.780;25.948;2023-02-26T10:59:45;99644.91;;;15.46;63.79
45285;BME280;31026;43.780;25.948;2023-02-26T11:02:24;99642.09;;;15.47;64.08
45285;BME280;31026;43.780;25.948;2023-02-26T11:04:59;99648.13;;;15.49;63.90
45285;BME280;31026;43.780;25.948;2023-02-26T11:07:27;99642.09;;;15.47;63.96
45285;BME280;31026;43.780;25.948;2023-02-26T11:09:57;99645.75;;;15.46;63.82
45285;BME280;31026;43.780;25.948;2023-02-26T11:12:26;99639.03;;;15.42;63.83
45285;BME280;31026;43.780;25.948;2023-02-26T11:14:54;99639.59;;;15.46;64.10
45285;BME280;31026;43.780;25.948;2023-02-26T11:17:23;99643.78;;;15.48;63.77
45285;BME280;31026;43.780;25.948;2023-02-26T11:19:55;99631.59;;;15.46;64.13
45285;BME280;31026;43.780;25.948;2023-02-26T11:22:28;99631.59;;;15.46;63.96
45285;BME280;31026;43.780;25.948;2023-02-26T11:24:57;99642.09;;;15.47;64.09
45285;BME280;31026;43.780;25.948;2023-02-26T11:27:31;99641.53;;;15.54;63.89
45285;BME280;31026;43.780;25.948;2023-02-26T11:30:03;99630.16;;;15.51;63.82
45285;BME280;31026;43.780;25.948;2023-02-26T11:32:33;99637.91;;;15.55;63.65
45285;BME280;31026;43.780;25.948;2023-02-26T11:35:06;99630.88;;;15.54;63.37
45285;BME280;31026;43.780;25.948;2023-02-26T11:37:38;99654.56;;;15.57;63.59
45285;BME280;31026;43.780;25.948;2023-02-26T11:40:12;99653.56;;;15.58;63.24
45285;BME280;31026;43.780;25.948;2023-02-26T11:42:42;99654.31;;;15.60;63.35
45285;BME280;31026;43.780;25.948;2023-02-26T11:45:12;99669.56;;;15.58;63.33
45285;BME280;31026;43.780;25.948;2023-02-26T11:47:41;99674.06;;;15.57;63.50
45285;BME280;31026;43.780;25.948;2023-02-26T11:50:11;99680.22;;;15.58;63.40
45285;BME280;31026;43.780;25.948;2023-02-26T11:52:45;99702.69;;;15.55;63.66
45285;BME280;31026;43.780;25.948;2023-02-26T11:55:17;99673.50;;;15.54;63.69
45285;BME280;31026;43.780;25.948;2023-02-26T11:57:49;99684.44;;;15.50;63.90
45285;BME280;31026;43.780;25.948;2023-02-26T12:00:19;99668.47;;;15.50;63.58
45285;BME280;31026;43.780;25.948;2023-02-26T12:02:47;99671.84;;;15.52;63.89
45285;BME280;31026;43.780;25.948;2023-02-26T12:05:16;99686.56;;;15.57;63.86
45285;BME280;31026;43.780;25.948;2023-02-26T12:07:47;99665.94;;;15.59;63.61
45285;BME280;31026;43.780;25.948;2023-02-26T12:10:16;99662.00;;;15.63;63.52
45285;BME280;31026;43.780;25.948;2023-02-26T12:12:48;99648.56;;;15.64;63.71
45285;BME280;31026;43.780;25.948;2023-02-26T12:15:21;99635.94;;;15.66;63.60
45285;BME280;31026;43.780;25.948;2023-02-26T12:18:01;99643.22;;;15.64;63.46
45285;BME280;31026;43.780;25.948;2023-02-26T12:20:34;99647.41;;;15.67;63.02
45285;BME280;31026;43.780;25.948;2023-02-26T12:23:15;99646.03;;;15.63;63.47
45285;BME280;31026;43.780;25.948;2023-02-26T12:25:52;99631.72;;;15.64;63.29
45285;BME280;31026;43.780;25.948;2023-02-26T12:28:36;99627.66;;;15.60;63.33
45285;BME280;31026;43.780;25.948;2023-02-26T12:31:15;99639.16;;;15.60;62.98
45285;BME280;31026;43.780;25.948;2023-02-26T12:33:50;99630.47;;;15.58;63.34
45285;BME280;31026;43.780;25.948;2023-02-26T12:36:28;99631.44;;;15.57;63.37
45285;BME280;31026;43.780;25.948;2023-02-26T12:39:04;99640.56;;;15.55;63.29
45285;BME280;31026;43.780;25.948;2023-02-26T12:41:42;99639.56;;;15.56;63.35
45285;BME280;31026;43.780;25.948;2023-02-26T12:44:18;99637.91;;;15.55;63.64
45285;BME280;31026;43.780;25.948;2023-02-26T12:46:58;99641.81;;;15.50;63.75
45285;BME280;31026;43.780;25.948;2023-02-26T12:49:46;99651.66;;;15.50;63.77
45285;BME280;31026;43.780;25.948;2023-02-26T12:52:22;99650.78;;;15.49;63.38
45285;BME280;31026;43.780;25.948;2023-02-26T12:55:09;99634.97;;;15.48;63.85
45285;BME280;31026;43.780;25.948;2023-02-26T12:57:50;99646.59;;;15.47;63.62
45285;BME280;31026;43.780;25.948;2023-02-26T13:00:22;99649.13;;;15.48;63.82
45285;BME280;31026;43.780;25.948;2023-02-26T13:05:51;99651.22;;;15.45;63.55
45285;BME280;31026;43.780;25.948;2023-02-26T13:08:27;99647.72;;;15.44;63.49
45285;BME280;31026;43.780;25.948;2023-02-26T13:11:05;99660.91;;;15.46;63.88
45285;BME280;31026;43.780;25.948;2023-02-26T13:13:39;99648.13;;;15.49;63.62
45285;BME280;31026;43.780;25.948;2023-02-26T13:16:17;99655.28;;;15.49;63.93